Terminal Aerodrome Forecast
Issued by NWS

Home | Current Version | Previous Version | Text Only | Print | Product List | Glossary On
Versions: 1 2 3 4 5 6 7 8 9 10 11 12
000
FTUS45 KABQ 061742
TAFROW
TAF
KROW 061742Z 0618/0718 17015G25KT P6SM FEW110
     FM062200 15021G31KT P6SM SCT100
     FM070100 15012G18KT P6SM VCSH BKN100
      TEMPO 0701/0705 VRB23G33KT -SHRA BKN100
     FM070900 18011KT P6SM SCT110
     FM071500 21017KT P6SM SKC=

USA.gov is the U.S. government's official web portal to all federal, state and local government web resources and services.